sensor_id;sensor_type;location;lat;lon;timestamp;P1;durP1;ratioP1;P2;durP2;ratioP2
71462;SDS011;59266;52.608;13.260;2023-09-19T00:01:46;9.02;;;2.60;;
71462;SDS011;59266;52.608;13.260;2023-09-19T00:04:13;8.20;;;2.63;;
71462;SDS011;59266;52.608;13.260;2023-09-19T00:06:43;7.95;;;2.35;;
71462;SDS011;59266;52.608;13.260;2023-09-19T00:09:10;6.00;;;2.50;;
71462;SDS011;59266;52.608;13.260;2023-09-19T00:11:37;8.88;;;2.45;;
71462;SDS011;59266;52.608;13.260;2023-09-19T00:14:05;7.05;;;2.40;;
71462;SDS011;59266;52.608;13.260;2023-09-19T00:16:34;6.32;;;2.40;;
71462;SDS011;59266;52.608;13.260;2023-09-19T00:19:01;9.52;;;3.53;;
71462;SDS011;59266;52.608;13.260;2023-09-19T00:21:34;7.57;;;2.67;;
71462;SDS011;59266;52.608;13.260;2023-09-19T00:24:05;6.68;;;2.60;;
71462;SDS011;59266;52.608;13.260;2023-09-19T00:26:32;7.93;;;2.38;;
71462;SDS011;59266;52.608;13.260;2023-09-19T00:29:00;6.90;;;2.22;;
71462;SDS011;59266;52.608;13.260;2023-09-19T00:31:30;8.27;;;2.60;;
71462;SDS011;59266;52.608;13.260;2023-09-19T00:33:58;7.80;;;2.47;;
71462;SDS011;59266;52.608;13.260;2023-09-19T00:36:26;7.97;;;2.55;;
71462;SDS011;59266;52.608;13.260;2023-09-19T00:38:53;7.20;;;2.40;;
71462;SDS011;59266;52.608;13.260;2023-09-19T00:41:20;7.82;;;2.20;;
71462;SDS011;59266;52.608;13.260;2023-09-19T00:43:47;6.38;;;2.20;;
71462;SDS011;59266;52.608;13.260;2023-09-19T00:46:16;7.18;;;2.22;;
71462;SDS011;59266;52.608;13.260;2023-09-19T00:48:43;7.00;;;2.33;;
71462;SDS011;59266;52.608;13.260;2023-09-19T00:51:10;6.80;;;1.90;;
71462;SDS011;59266;52.608;13.260;2023-09-19T00:53:40;7.53;;;2.25;;
71462;SDS011;59266;52.608;13.260;2023-09-19T00:56:12;8.80;;;3.00;;
71462;SDS011;59266;52.608;13.260;2023-09-19T00:58:45;8.48;;;2.30;;
71462;SDS011;59266;52.608;13.260;2023-09-19T01:01:13;10.93;;;2.28;;
71462;SDS011;59266;52.608;13.260;2023-09-19T01:03:44;6.55;;;2.28;;
71462;SDS011;59266;52.608;13.260;2023-09-19T01:06:11;6.97;;;2.15;;
71462;SDS011;59266;52.608;13.260;2023-09-19T01:08:38;6.90;;;2.10;;
71462;SDS011;59266;52.608;13.260;2023-09-19T01:11:10;10.93;;;2.40;;
71462;SDS011;59266;52.608;13.260;2023-09-19T01:14:10;7.93;;;2.25;;
71462;SDS011;59266;52.608;13.260;2023-09-19T01:17:04;6.18;;;2.10;;
71462;SDS011;59266;52.608;13.260;2023-09-19T01:20:02;7.28;;;2.15;;
71462;SDS011;59266;52.608;13.260;2023-09-19T01:23:01;6.10;;;2.20;;
71462;SDS011;59266;52.608;13.260;2023-09-19T01:28:29;9.82;;;2.33;;
71462;SDS011;59266;52.608;13.260;2023-09-19T01:31:03;9.52;;;1.98;;
71462;SDS011;59266;52.608;13.260;2023-09-19T01:36:27;5.38;;;1.80;;
71462;SDS011;59266;52.608;13.260;2023-09-19T01:39:00;8.95;;;2.20;;
71462;SDS011;59266;52.608;13.260;2023-09-19T01:41:33;7.07;;;1.77;;
71462;SDS011;59266;52.608;13.260;2023-09-19T01:44:09;7.60;;;2.17;;
71462;SDS011;59266;52.608;13.260;2023-09-19T01:46:44;8.90;;;2.42;;
71462;SDS011;59266;52.608;13.260;2023-09-19T01:49:59;5.82;;;2.00;;
71462;SDS011;59266;52.608;13.260;2023-09-19T01:52:13;5.22;;;1.90;;
71462;SDS011;59266;52.608;13.260;2023-09-19T01:54:46;8.18;;;2.78;;
71462;SDS011;59266;52.608;13.260;2023-09-19T01:57:34;8.10;;;2.22;;
71462;SDS011;59266;52.608;13.260;2023-09-19T02:00:07;7.72;;;2.53;;
71462;SDS011;59266;52.608;13.260;2023-09-19T02:02:36;5.57;;;2.10;;
71462;SDS011;59266;52.608;13.260;2023-09-19T02:05:04;8.25;;;2.33;;
71462;SDS011;59266;52.608;13.260;2023-09-19T02:07:31;5.72;;;2.10;;
71462;SDS011;59266;52.608;13.260;2023-09-19T02:09:58;7.82;;;2.17;;
71462;SDS011;59266;52.608;13.260;2023-09-19T02:12:26;7.43;;;2.03;;
71462;SDS011;59266;52.608;13.260;2023-09-19T02:14:54;7.70;;;2.25;;
71462;SDS011;59266;52.608;13.260;2023-09-19T02:17:20;9.15;;;2.70;;
71462;SDS011;59266;52.608;13.260;2023-09-19T02:19:47;7.72;;;2.60;;
71462;SDS011;59266;52.608;13.260;2023-09-19T02:22:14;6.60;;;2.40;;
71462;SDS011;59266;52.608;13.260;2023-09-19T02:24:42;7.55;;;2.15;;
71462;SDS011;59266;52.608;13.260;2023-09-19T02:27:09;7.10;;;2.30;;
71462;SDS011;59266;52.608;13.260;2023-09-19T02:29:38;7.03;;;2.38;;
71462;SDS011;59266;52.608;13.260;2023-09-19T02:32:06;6.43;;;2.20;;
71462;SDS011;59266;52.608;13.260;2023-09-19T02:34:33;7.90;;;2.20;;
71462;SDS011;59266;52.608;13.260;2023-09-19T02:37:03;11.65;;;2.85;;
71462;SDS011;59266;52.608;13.260;2023-09-19T02:39:32;7.28;;;2.70;;
71462;SDS011;59266;52.608;13.260;2023-09-19T02:41:59;6.30;;;2.38;;
71462;SDS011;59266;52.608;13.260;2023-09-19T02:44:26;7.82;;;2.60;;
71462;SDS011;59266;52.608;13.260;2023-09-19T02:46:53;6.32;;;1.98;;
71462;SDS011;59266;52.608;13.260;2023-09-19T02:49:20;7.72;;;2.33;;
71462;SDS011;59266;52.608;13.260;2023-09-19T02:51:47;7.32;;;2.42;;
71462;SDS011;59266;52.608;13.260;2023-09-19T02:54:14;8.63;;;2.42;;
71462;SDS011;59266;52.608;13.260;2023-09-19T02:56:42;8.82;;;2.53;;
71462;SDS011;59266;52.608;13.260;2023-09-19T02:59:09;11.20;;;2.58;;
71462;SDS011;59266;52.608;13.260;2023-09-19T03:01:37;6.20;;;2.17;;
71462;SDS011;59266;52.608;13.260;2023-09-19T03:04:05;7.13;;;2.63;;
71462;SDS011;59266;52.608;13.260;2023-09-19T03:06:34;6.45;;;2.70;;
71462;SDS011;59266;52.608;13.260;2023-09-19T03:09:01;7.28;;;2.20;;
71462;SDS011;59266;52.608;13.260;2023-09-19T03:11:29;8.95;;;2.80;;
71462;SDS011;59266;52.608;13.260;2023-09-19T03:13:57;8.38;;;2.72;;
71462;SDS011;59266;52.608;13.260;2023-09-19T03:16:24;7.63;;;2.13;;
71462;SDS011;59266;52.608;13.260;2023-09-19T03:18:51;7.07;;;2.55;;
71462;SDS011;59266;52.608;13.260;2023-09-19T03:21:18;8.40;;;2.50;;
71462;SDS011;59266;52.608;13.260;2023-09-19T03:23:45;6.43;;;2.22;;
71462;SDS011;59266;52.608;13.260;2023-09-19T03:26:12;7.47;;;2.10;;
71462;SDS011;59266;52.608;13.260;2023-09-19T03:28:42;5.70;;;1.98;;
71462;SDS011;59266;52.608;13.260;2023-09-19T03:31:12;6.95;;;2.35;;
71462;SDS011;59266;52.608;13.260;2023-09-19T03:33:39;5.45;;;1.55;;
71462;SDS011;59266;52.608;13.260;2023-09-19T03:36:07;6.35;;;1.88;;
71462;SDS011;59266;52.608;13.260;2023-09-19T03:38:34;10.18;;;1.80;;
71462;SDS011;59266;52.608;13.260;2023-09-19T03:41:01;5.25;;;1.83;;
71462;SDS011;59266;52.608;13.260;2023-09-19T03:43:28;7.03;;;2.08;;
71462;SDS011;59266;52.608;13.260;2023-09-19T03:45:55;4.28;;;1.80;;
71462;SDS011;59266;52.608;13.260;2023-09-19T03:48:22;5.10;;;1.70;;
71462;SDS011;59266;52.608;13.260;2023-09-19T03:50:49;5.28;;;1.73;;
71462;SDS011;59266;52.608;13.260;2023-09-19T03:53:17;7.03;;;1.50;;
71462;SDS011;59266;52.608;13.260;2023-09-19T03:55:45;4.75;;;1.90;;
71462;SDS011;59266;52.608;13.260;2023-09-19T03:58:13;5.88;;;1.77;;
71462;SDS011;59266;52.608;13.260;2023-09-19T04:00:40;6.88;;;1.90;;
71462;SDS011;59266;52.608;13.260;2023-09-19T04:03:07;4.97;;;1.60;;
71462;SDS011;59266;52.608;13.260;2023-09-19T04:05:34;8.23;;;1.92;;
71462;SDS011;59266;52.608;13.260;2023-09-19T04:08:01;3.55;;;1.42;;
71462;SDS011;59266;52.608;13.260;2023-09-19T04:10:30;4.25;;;1.73;;
71462;SDS011;59266;52.608;13.260;2023-09-19T04:12:56;5.68;;;1.73;;
71462;SDS011;59266;52.608;13.260;2023-09-19T04:15:23;7.03;;;1.90;;
71462;SDS011;59266;52.608;13.260;2023-09-19T04:17:51;7.35;;;1.90;;
71462;SDS011;59266;52.608;13.260;2023-09-19T04:20:18;6.60;;;2.00;;
71462;SDS011;59266;52.608;13.260;2023-09-19T04:22:46;4.68;;;1.58;;
71462;SDS011;59266;52.608;13.260;2023-09-19T04:25:13;5.40;;;1.70;;
71462;SDS011;59266;52.608;13.260;2023-09-19T04:27:41;5.00;;;2.30;;
71462;SDS011;59266;52.608;13.260;2023-09-19T04:30:08;5.40;;;1.70;;
71462;SDS011;59266;52.608;13.260;2023-09-19T04:32:39;6.65;;;1.95;;
71462;SDS011;59266;52.608;13.260;2023-09-19T04:35:06;4.45;;;2.08;;
71462;SDS011;59266;52.608;13.260;2023-09-19T04:37:38;6.05;;;1.75;;
71462;SDS011;59266;52.608;13.260;2023-09-19T04:40:06;5.65;;;1.80;;
71462;SDS011;59266;52.608;13.260;2023-09-19T04:42:42;7.22;;;1.88;;
71462;SDS011;59266;52.608;13.260;2023-09-19T04:45:09;4.82;;;1.85;;
71462;SDS011;59266;52.608;13.260;2023-09-19T04:47:39;7.10;;;2.05;;
71462;SDS011;59266;52.608;13.260;2023-09-19T04:50:08;4.97;;;2.03;;
71462;SDS011;59266;52.608;13.260;2023-09-19T04:52:40;5.72;;;2.00;;
71462;SDS011;59266;52.608;13.260;2023-09-19T04:55:15;6.32;;;1.90;;
71462;SDS011;59266;52.608;13.260;2023-09-19T04:57:47;4.50;;;1.80;;
71462;SDS011;59266;52.608;13.260;2023-09-19T05:00:16;6.10;;;2.15;;
71462;SDS011;59266;52.608;13.260;2023-09-19T05:02:46;7.57;;;2.30;;
71462;SDS011;59266;52.608;13.260;2023-09-19T05:05:16;5.90;;;2.20;;
71462;SDS011;59266;52.608;13.260;2023-09-19T05:07:43;5.53;;;2.25;;
71462;SDS011;59266;52.608;13.260;2023-09-19T05:10:11;5.93;;;2.20;;
71462;SDS011;59266;52.608;13.260;2023-09-19T05:12:40;7.10;;;2.30;;
71462;SDS011;59266;52.608;13.260;2023-09-19T05:15:07;6.57;;;2.47;;
71462;SDS011;59266;52.608;13.260;2023-09-19T05:17:34;6.75;;;1.98;;
71462;SDS011;59266;52.608;13.260;2023-09-19T05:20:02;8.25;;;2.25;;
71462;SDS011;59266;52.608;13.260;2023-09-19T05:22:43;7.00;;;2.35;;
71462;SDS011;59266;52.608;13.260;2023-09-19T05:25:10;5.32;;;2.13;;
71462;SDS011;59266;52.608;13.260;2023-09-19T05:27:37;4.95;;;1.85;;
71462;SDS011;59266;52.608;13.260;2023-09-19T05:30:05;6.03;;;1.98;;
71462;SDS011;59266;52.608;13.260;2023-09-19T05:32:33;4.95;;;2.03;;
71462;SDS011;59266;52.608;13.260;2023-09-19T05:34:59;5.05;;;2.17;;
71462;SDS011;59266;52.608;13.260;2023-09-19T05:37:26;4.85;;;1.83;;
71462;SDS011;59266;52.608;13.260;2023-09-19T05:39:53;6.15;;;2.05;;
71462;SDS011;59266;52.608;13.260;2023-09-19T05:42:20;4.72;;;1.67;;
71462;SDS011;59266;52.608;13.260;2023-09-19T05:44:46;5.53;;;2.05;;
71462;SDS011;59266;52.608;13.260;2023-09-19T05:47:13;5.45;;;1.98;;
71462;SDS011;59266;52.608;13.260;2023-09-19T05:49:40;5.78;;;1.98;;
71462;SDS011;59266;52.608;13.260;2023-09-19T05:52:07;5.88;;;1.88;;
71462;SDS011;59266;52.608;13.260;2023-09-19T05:54:34;5.80;;;1.85;;
71462;SDS011;59266;52.608;13.260;2023-09-19T05:57:01;6.90;;;2.30;;
71462;SDS011;59266;52.608;13.260;2023-09-19T05:59:28;8.05;;;2.28;;
71462;SDS011;59266;52.608;13.260;2023-09-19T06:01:54;11.05;;;2.15;;
71462;SDS011;59266;52.608;13.260;2023-09-19T06:04:21;8.55;;;2.00;;
71462;SDS011;59266;52.608;13.260;2023-09-19T06:06:48;5.88;;;2.10;;
71462;SDS011;59266;52.608;13.260;2023-09-19T06:09:15;4.60;;;1.75;;
71462;SDS011;59266;52.608;13.260;2023-09-19T06:11:42;4.55;;;1.80;;
71462;SDS011;59266;52.608;13.260;2023-09-19T06:14:08;6.80;;;1.90;;
71462;SDS011;59266;52.608;13.260;2023-09-19T06:16:36;6.13;;;1.98;;
71462;SDS011;59266;52.608;13.260;2023-09-19T06:19:04;6.25;;;1.67;;
71462;SDS011;59266;52.608;13.260;2023-09-19T06:21:35;6.45;;;1.73;;
71462;SDS011;59266;52.608;13.260;2023-09-19T06:24:02;6.57;;;1.70;;
71462;SDS011;59266;52.608;13.260;2023-09-19T06:26:29;5.85;;;1.85;;
71462;SDS011;59266;52.608;13.260;2023-09-19T06:28:57;6.15;;;1.80;;
71462;SDS011;59266;52.608;13.260;2023-09-19T06:31:24;4.28;;;1.52;;
71462;SDS011;59266;52.608;13.260;2023-09-19T06:33:53;6.70;;;1.92;;
71462;SDS011;59266;52.608;13.260;2023-09-19T06:36:19;8.30;;;1.85;;
71462;SDS011;59266;52.608;13.260;2023-09-19T06:38:47;5.15;;;1.67;;
71462;SDS011;59266;52.608;13.260;2023-09-19T06:41:19;5.07;;;1.83;;
71462;SDS011;59266;52.608;13.260;2023-09-19T06:43:46;9.02;;;1.90;;
71462;SDS011;59266;52.608;13.260;2023-09-19T06:46:12;6.90;;;1.80;;
71462;SDS011;59266;52.608;13.260;2023-09-19T06:48:39;7.15;;;1.80;;
71462;SDS011;59266;52.608;13.260;2023-09-19T06:51:06;8.50;;;1.73;;
71462;SDS011;59266;52.608;13.260;2023-09-19T06:53:34;5.70;;;1.88;;
71462;SDS011;59266;52.608;13.260;2023-09-19T06:56:02;6.05;;;2.00;;
71462;SDS011;59266;52.608;13.260;2023-09-19T06:58:31;6.40;;;1.90;;
71462;SDS011;59266;52.608;13.260;2023-09-19T07:00:58;6.03;;;2.22;;
71462;SDS011;59266;52.608;13.260;2023-09-19T07:03:25;6.78;;;2.10;;
71462;SDS011;59266;52.608;13.260;2023-09-19T07:05:53;9.68;;;1.92;;
71462;SDS011;59266;52.608;13.260;2023-09-19T07:08:22;7.65;;;2.30;;
71462;SDS011;59266;52.608;13.260;2023-09-19T07:10:49;7.07;;;2.10;;
71462;SDS011;59266;52.608;13.260;2023-09-19T07:13:16;7.70;;;2.10;;
71462;SDS011;59266;52.608;13.260;2023-09-19T07:15:45;7.40;;;2.13;;
71462;SDS011;59266;52.608;13.260;2023-09-19T07:18:17;10.07;;;2.38;;
71462;SDS011;59266;52.608;13.260;2023-09-19T07:20:44;7.82;;;1.83;;
71462;SDS011;59266;52.608;13.260;2023-09-19T07:23:16;6.82;;;1.95;;
71462;SDS011;59266;52.608;13.260;2023-09-19T07:25:48;6.22;;;1.98;;
71462;SDS011;59266;52.608;13.260;2023-09-19T07:28:16;7.95;;;2.20;;
71462;SDS011;59266;52.608;13.260;2023-09-19T07:30:43;5.80;;;1.80;;
71462;SDS011;59266;52.608;13.260;2023-09-19T07:33:10;7.45;;;2.25;;
71462;SDS011;59266;52.608;13.260;2023-09-19T07:35:40;7.50;;;2.20;;
71462;SDS011;59266;52.608;13.260;2023-09-19T07:38:08;7.63;;;2.20;;
71462;SDS011;59266;52.608;13.260;2023-09-19T07:40:38;6.97;;;2.17;;
71462;SDS011;59266;52.608;13.260;2023-09-19T07:43:05;8.50;;;2.40;;
71462;SDS011;59266;52.608;13.260;2023-09-19T07:45:33;7.78;;;2.40;;
71462;SDS011;59266;52.608;13.260;2023-09-19T07:48:00;7.20;;;2.13;;
71462;SDS011;59266;52.608;13.260;2023-09-19T07:50:33;5.18;;;1.90;;
71462;SDS011;59266;52.608;13.260;2023-09-19T07:53:04;7.68;;;2.63;;
71462;SDS011;59266;52.608;13.260;2023-09-19T07:55:31;8.73;;;2.47;;
71462;SDS011;59266;52.608;13.260;2023-09-19T07:58:04;8.38;;;2.70;;
71462;SDS011;59266;52.608;13.260;2023-09-19T08:00:33;8.52;;;2.47;;
71462;SDS011;59266;52.608;13.260;2023-09-19T08:03:03;7.50;;;2.60;;
71462;SDS011;59266;52.608;13.260;2023-09-19T08:05:42;7.43;;;2.50;;
71462;SDS011;59266;52.608;13.260;2023-09-19T08:08:11;7.30;;;2.28;;
71462;SDS011;59266;52.608;13.260;2023-09-19T08:10:43;9.75;;;2.42;;
71462;SDS011;59266;52.608;13.260;2023-09-19T08:13:14;7.75;;;2.30;;
71462;SDS011;59266;52.608;13.260;2023-09-19T08:15:44;8.55;;;2.17;;
71462;SDS011;59266;52.608;13.260;2023-09-19T08:18:12;7.13;;;2.30;;
71462;SDS011;59266;52.608;13.260;2023-09-19T08:20:41;9.68;;;2.38;;
71462;SDS011;59266;52.608;13.260;2023-09-19T08:23:14;5.88;;;2.20;;
71462;SDS011;59266;52.608;13.260;2023-09-19T08:25:43;12.05;;;3.38;;
71462;SDS011;59266;52.608;13.260;2023-09-19T08:28:10;10.00;;;2.40;;
71462;SDS011;59266;52.608;13.260;2023-09-19T08:30:38;9.98;;;2.20;;
71462;SDS011;59266;52.608;13.260;2023-09-19T08:33:07;7.72;;;2.50;;
71462;SDS011;59266;52.608;13.260;2023-09-19T08:35:38;6.80;;;2.00;;
71462;SDS011;59266;52.608;13.260;2023-09-19T08:38:06;7.97;;;2.20;;
71462;SDS011;59266;52.608;13.260;2023-09-19T08:40:33;9.05;;;2.65;;
71462;SDS011;59266;52.608;13.260;2023-09-19T08:43:08;6.93;;;2.28;;
71462;SDS011;59266;52.608;13.260;2023-09-19T08:45:35;11.10;;;2.63;;
71462;SDS011;59266;52.608;13.260;2023-09-19T08:50:56;8.20;;;2.40;;
71462;SDS011;59266;52.608;13.260;2023-09-19T08:53:42;6.53;;;2.30;;
71462;SDS011;59266;52.608;13.260;2023-09-19T08:56:30;6.90;;;2.33;;
71462;SDS011;59266;52.608;13.260;2023-09-19T08:59:00;7.38;;;2.10;;
71462;SDS011;59266;52.608;13.260;2023-09-19T09:01:29;6.57;;;2.10;;
71462;SDS011;59266;52.608;13.260;2023-09-19T09:03:59;8.52;;;2.13;;
71462;SDS011;59266;52.608;13.260;2023-09-19T09:06:29;8.23;;;2.13;;
71462;SDS011;59266;52.608;13.260;2023-09-19T09:08:55;8.70;;;2.42;;
71462;SDS011;59266;52.608;13.260;2023-09-19T09:11:22;5.90;;;1.90;;
71462;SDS011;59266;52.608;13.260;2023-09-19T09:13:51;7.70;;;2.05;;
71462;SDS011;59266;52.608;13.260;2023-09-19T09:16:18;9.02;;;2.17;;
71462;SDS011;59266;52.608;13.260;2023-09-19T09:18:46;6.10;;;2.10;;
71462;SDS011;59266;52.608;13.260;2023-09-19T09:21:25;6.30;;;2.00;;
71462;SDS011;59266;52.608;13.260;2023-09-19T09:27:09;7.45;;;2.30;;
71462;SDS011;59266;52.608;13.260;2023-09-19T09:29:42;7.95;;;2.53;;
71462;SDS011;59266;52.608;13.260;2023-09-19T09:34:56;8.68;;;2.20;;
71462;SDS011;59266;52.608;13.260;2023-09-19T09:37:27;8.70;;;2.78;;
71462;SDS011;59266;52.608;13.260;2023-09-19T09:39:58;8.90;;;2.90;;
71462;SDS011;59266;52.608;13.260;2023-09-19T09:42:44;5.93;;;2.00;;
71462;SDS011;59266;52.608;13.260;2023-09-19T09:45:22;9.48;;;2.35;;
71462;SDS011;59266;52.608;13.260;2023-09-19T09:47:59;6.60;;;2.15;;
71462;SDS011;59266;52.608;13.260;2023-09-19T09:50:33;11.00;;;2.70;;
71462;SDS011;59266;52.608;13.260;2023-09-19T09:53:22;8.98;;;2.60;;
71462;SDS011;59266;52.608;13.260;2023-09-19T09:55:58;8.05;;;2.30;;
71462;SDS011;59266;52.608;13.260;2023-09-19T09:58:35;9.43;;;2.42;;
71462;SDS011;59266;52.608;13.260;2023-09-19T10:01:04;11.00;;;2.85;;
71462;SDS011;59266;52.608;13.260;2023-09-19T10:03:39;7.70;;;2.55;;
71462;SDS011;59266;52.608;13.260;2023-09-19T10:06:07;6.63;;;2.50;;
71462;SDS011;59266;52.608;13.260;2023-09-19T10:11:43;7.40;;;2.50;;
71462;SDS011;59266;52.608;13.260;2023-09-19T10:14:15;9.55;;;2.40;;
71462;SDS011;59266;52.608;13.260;2023-09-19T10:16:46;9.57;;;2.75;;
71462;SDS011;59266;52.608;13.260;2023-09-19T10:19:21;7.25;;;2.55;;
71462;SDS011;59266;52.608;13.260;2023-09-19T10:21:54;8.40;;;2.58;;
71462;SDS011;59266;52.608;13.260;2023-09-19T10:24:24;9.90;;;2.80;;
71462;SDS011;59266;52.608;13.260;2023-09-19T10:26:53;6.43;;;2.47;;
71462;SDS011;59266;52.608;13.260;2023-09-19T10:29:23;9.43;;;2.95;;
71462;SDS011;59266;52.608;13.260;2023-09-19T10:31:52;8.20;;;2.80;;
71462;SDS011;59266;52.608;13.260;2023-09-19T10:34:20;9.38;;;2.70;;
71462;SDS011;59266;52.608;13.260;2023-09-19T10:36:48;7.55;;;2.30;;
71462;SDS011;59266;52.608;13.260;2023-09-19T10:39:17;10.20;;;2.83;;
71462;SDS011;59266;52.608;13.260;2023-09-19T10:41:47;7.55;;;2.40;;
71462;SDS011;59266;52.608;13.260;2023-09-19T10:44:26;7.78;;;2.70;;
71462;SDS011;59266;52.608;13.260;2023-09-19T10:46:54;9.90;;;2.67;;
71462;SDS011;59266;52.608;13.260;2023-09-19T10:49:23;8.57;;;2.70;;
71462;SDS011;59266;52.608;13.260;2023-09-19T10:51:54;8.35;;;2.63;;
71462;SDS011;59266;52.608;13.260;2023-09-19T10:54:25;7.88;;;2.42;;
71462;SDS011;59266;52.608;13.260;2023-09-19T10:56:55;9.90;;;2.53;;
71462;SDS011;59266;52.608;13.260;2023-09-19T10:59:25;8.23;;;2.58;;
71462;SDS011;59266;52.608;13.260;2023-09-19T11:02:15;9.23;;;2.58;;
71462;SDS011;59266;52.608;13.260;2023-09-19T11:04:44;7.47;;;2.40;;
71462;SDS011;59266;52.608;13.260;2023-09-19T11:07:14;7.38;;;2.42;;
71462;SDS011;59266;52.608;13.260;2023-09-19T11:09:49;8.73;;;2.35;;
71462;SDS011;59266;52.608;13.260;2023-09-19T11:13:02;14.25;;;2.60;;
71462;SDS011;59266;52.608;13.260;2023-09-19T11:16:02;7.75;;;2.30;;
71462;SDS011;59266;52.608;13.260;2023-09-19T11:18:50;8.23;;;2.33;;
71462;SDS011;59266;52.608;13.260;2023-09-19T11:26:39;9.48;;;2.30;;
71462;SDS011;59266;52.608;13.260;2023-09-19T11:29:26;7.55;;;2.22;;
71462;SDS011;59266;52.608;13.260;2023-09-19T11:31:55;9.18;;;2.38;;
71462;SDS011;59266;52.608;13.260;2023-09-19T11:39:38;8.75;;;2.13;;
71462;SDS011;59266;52.608;13.260;2023-09-19T11:48:24;7.93;;;2.30;;
71462;SDS011;59266;52.608;13.260;2023-09-19T11:50:54;6.15;;;2.00;;
71462;SDS011;59266;52.608;13.260;2023-09-19T11:53:23;8.10;;;2.00;;
71462;SDS011;59266;52.608;13.260;2023-09-19T11:55:56;10.18;;;2.42;;
71462;SDS011;59266;52.608;13.260;2023-09-19T11:58:26;8.45;;;2.00;;
71462;SDS011;59266;52.608;13.260;2023-09-19T12:00:56;5.90;;;1.80;;
71462;SDS011;59266;52.608;13.260;2023-09-19T12:03:28;6.30;;;1.63;;
71462;SDS011;59266;52.608;13.260;2023-09-19T12:05:57;8.20;;;1.73;;
71462;SDS011;59266;52.608;13.260;2023-09-19T12:08:26;7.78;;;1.73;;
71462;SDS011;59266;52.608;13.260;2023-09-19T12:10:53;7.60;;;1.80;;
71462;SDS011;59266;52.608;13.260;2023-09-19T12:13:21;8.38;;;1.90;;
71462;SDS011;59266;52.608;13.260;2023-09-19T12:15:48;7.28;;;2.00;;
71462;SDS011;59266;52.608;13.260;2023-09-19T12:18:31;5.88;;;1.80;;
71462;SDS011;59266;52.608;13.260;2023-09-19T12:20:57;6.50;;;1.80;;
71462;SDS011;59266;52.608;13.260;2023-09-19T12:23:24;8.95;;;1.90;;
71462;SDS011;59266;52.608;13.260;2023-09-19T12:25:54;7.55;;;1.95;;
71462;SDS011;59266;52.608;13.260;2023-09-19T12:28:27;7.97;;;2.20;;
71462;SDS011;59266;52.608;13.260;2023-09-19T12:31:06;6.80;;;1.70;;
71462;SDS011;59266;52.608;13.260;2023-09-19T12:33:33;6.30;;;1.85;;
71462;SDS011;59266;52.608;13.260;2023-09-19T12:36:18;7.68;;;1.85;;
71462;SDS011;59266;52.608;13.260;2023-09-19T12:38:48;6.57;;;1.40;;
71462;SDS011;59266;52.608;13.260;2023-09-19T12:41:15;8.27;;;1.75;;
71462;SDS011;59266;52.608;13.260;2023-09-19T12:43:42;9.68;;;1.80;;
71462;SDS011;59266;52.608;13.260;2023-09-19T12:46:09;8.35;;;2.08;;
71462;SDS011;59266;52.608;13.260;2023-09-19T12:48:36;5.55;;;1.67;;
71462;SDS011;59266;52.608;13.260;2023-09-19T12:51:05;10.82;;;1.92;;
71462;SDS011;59266;52.608;13.260;2023-09-19T12:53:44;8.07;;;1.83;;
71462;SDS011;59266;52.608;13.260;2023-09-19T12:56:13;8.30;;;1.75;;
71462;SDS011;59266;52.608;13.260;2023-09-19T12:58:49;7.32;;;1.73;;
71462;SDS011;59266;52.608;13.260;2023-09-19T13:01:22;8.13;;;1.73;;
71462;SDS011;59266;52.608;13.260;2023-09-19T13:04:10;7.05;;;2.20;;
71462;SDS011;59266;52.608;13.260;2023-09-19T13:06:44;6.82;;;1.85;;
71462;SDS011;59266;52.608;13.260;2023-09-19T13:09:16;7.75;;;1.75;;
71462;SDS011;59266;52.608;13.260;2023-09-19T13:11:47;8.20;;;2.08;;
71462;SDS011;59266;52.608;13.260;2023-09-19T13:14:21;6.22;;;1.55;;
71462;SDS011;59266;52.608;13.260;2023-09-19T13:16:59;4.85;;;1.45;;
71462;SDS011;59266;52.608;13.260;2023-09-19T13:19:46;7.85;;;1.73;;
71462;SDS011;59266;52.608;13.260;2023-09-19T13:22:41;7.28;;;1.70;;
71462;SDS011;59266;52.608;13.260;2023-09-19T13:25:21;7.53;;;1.98;;
71462;SDS011;59266;52.608;13.260;2023-09-19T13:27:49;6.72;;;1.67;;
71462;SDS011;59266;52.608;13.260;2023-09-19T13:30:26;7.65;;;1.70;;
71462;SDS011;59266;52.608;13.260;2023-09-19T13:33:08;6.82;;;1.50;;
71462;SDS011;59266;52.608;13.260;2023-09-19T13:35:38;6.93;;;1.60;;
71462;SDS011;59266;52.608;13.260;2023-09-19T13:38:07;8.43;;;1.67;;
71462;SDS011;59266;52.608;13.260;2023-09-19T13:40:45;7.00;;;1.70;;
71462;SDS011;59266;52.608;13.260;2023-09-19T13:43:16;6.25;;;1.60;;
71462;SDS011;59266;52.608;13.260;2023-09-19T13:45:44;7.75;;;1.60;;
71462;SDS011;59266;52.608;13.260;2023-09-19T13:48:10;5.65;;;1.63;;
71462;SDS011;59266;52.608;13.260;2023-09-19T13:53:09;10.90;;;1.80;;
71462;SDS011;59266;52.608;13.260;2023-09-19T13:55:40;9.00;;;2.00;;
71462;SDS011;59266;52.608;13.260;2023-09-19T13:58:07;5.22;;;1.60;;
71462;SDS011;59266;52.608;13.260;2023-09-19T14:00:39;6.18;;;1.45;;
71462;SDS011;59266;52.608;13.260;2023-09-19T14:03:09;6.38;;;1.50;;
71462;SDS011;59266;52.608;13.260;2023-09-19T14:05:37;7.00;;;1.90;;
71462;SDS011;59266;52.608;13.260;2023-09-19T14:08:06;6.65;;;1.48;;
71462;SDS011;59266;52.608;13.260;2023-09-19T14:10:33;5.25;;;1.63;;
71462;SDS011;59266;52.608;13.260;2023-09-19T14:13:01;6.70;;;1.63;;
71462;SDS011;59266;52.608;13.260;2023-09-19T14:15:27;9.77;;;2.25;;
71462;SDS011;59266;52.608;13.260;2023-09-19T14:17:57;7.78;;;2.30;;
71462;SDS011;59266;52.608;13.260;2023-09-19T14:20:26;5.72;;;1.70;;
71462;SDS011;59266;52.608;13.260;2023-09-19T14:22:53;6.90;;;1.77;;
71462;SDS011;59266;52.608;13.260;2023-09-19T14:25:22;12.23;;;1.88;;
71462;SDS011;59266;52.608;13.260;2023-09-19T14:27:49;4.43;;;1.40;;
71462;SDS011;59266;52.608;13.260;2023-09-19T14:30:16;6.15;;;1.48;;
71462;SDS011;59266;52.608;13.260;2023-09-19T14:32:43;7.70;;;1.73;;
71462;SDS011;59266;52.608;13.260;2023-09-19T14:35:09;9.55;;;2.10;;
71462;SDS011;59266;52.608;13.260;2023-09-19T14:37:37;7.28;;;1.98;;
71462;SDS011;59266;52.608;13.260;2023-09-19T14:40:06;6.53;;;1.60;;
71462;SDS011;59266;52.608;13.260;2023-09-19T14:42:36;7.03;;;1.70;;
71462;SDS011;59266;52.608;13.260;2023-09-19T14:45:05;8.43;;;1.67;;
71462;SDS011;59266;52.608;13.260;2023-09-19T14:47:35;7.22;;;1.90;;
71462;SDS011;59266;52.608;13.260;2023-09-19T14:50:02;6.93;;;1.60;;
71462;SDS011;59266;52.608;13.260;2023-09-19T14:52:33;6.90;;;1.95;;
71462;SDS011;59266;52.608;13.260;2023-09-19T14:55:04;6.55;;;1.98;;
71462;SDS011;59266;52.608;13.260;2023-09-19T15:00:01;9.40;;;2.00;;
71462;SDS011;59266;52.608;13.260;2023-09-19T15:02:31;4.88;;;1.60;;
71462;SDS011;59266;52.608;13.260;2023-09-19T15:05:00;8.43;;;2.22;;
71462;SDS011;59266;52.608;13.260;2023-09-19T15:07:27;8.45;;;1.90;;
71462;SDS011;59266;52.608;13.260;2023-09-19T15:09:55;5.93;;;1.83;;
71462;SDS011;59266;52.608;13.260;2023-09-19T15:12:21;6.93;;;2.13;;
71462;SDS011;59266;52.608;13.260;2023-09-19T15:14:48;6.38;;;1.73;;
71462;SDS011;59266;52.608;13.260;2023-09-19T15:17:15;5.38;;;1.60;;
71462;SDS011;59266;52.608;13.260;2023-09-19T15:19:43;5.45;;;1.63;;
71462;SDS011;59266;52.608;13.260;2023-09-19T15:22:25;6.07;;;1.67;;
71462;SDS011;59266;52.608;13.260;2023-09-19T15:24:53;8.18;;;1.85;;
71462;SDS011;59266;52.608;13.260;2023-09-19T15:27:21;7.05;;;1.80;;
71462;SDS011;59266;52.608;13.260;2023-09-19T15:29:51;6.07;;;1.73;;
71462;SDS011;59266;52.608;13.260;2023-09-19T15:32:18;7.07;;;1.70;;